Polson, Montana
Current Conditions -  °F | °C
As of 10:55 PM on Wednesday 26 Nov 2014 (Local Time) from KGPI Reporting Station
Haze Haze  
Wind Chill: 32°   Ceiling: 600
Heat Index: 32°   Visibility: 4mi
Dew Point: 31°   Wind: 3mph
Humidity: 96%   Direction: 240°WSW
Pressure: 30.02"   Gusts: NA
Location:  47.69°N, 114.16°W
Report Text: KGPI 270555Z 24003KT 4SM BR BKN006 OVC055 00/M01 A3002 RMK AO2 VIS 1 3/4 NE SLP192 60000 T00001006 10006 20000 56010
Loading
Personal Weather Stations






























Interactive Weather Map New forecast layout! Learn more

10-Day Weather Forecast

Advertisements
Track Severe Weather on mobile